This is the latest recevied weather packets stored in our database for station/object OK1LPD-6. If no packets are shown the sender has not sent any weather packets the latest 1 day(s).
| Time | Temp. | Humidity | Pressure | Rain* | Wind** | Luminosity | Snow |
|---|---|---|---|---|---|---|---|
| 1778024695 | 14.44° C | 96% | 1006.2 hPa | 0 mm | 0 m/s | - | - |
| 1778024077 | 14.44° C | 95% | 1006.3 hPa | 0 mm | 0 m/s | - | - |
| 1778023477 | 14.44° C | 95% | 1006.4 hPa | 0 mm | 0 m/s | - | - |
| 1778022898 | 14.44° C | 95% | 1006.6 hPa | 0 mm | 0 m/s | - | - |
| 1778022277 | 14.44° C | 95% | 1006.8 hPa | 0.25 mm | 0 m/s | - | - |
| 1778021677 | 14.44° C | 95% | 1006.8 hPa | 0.51 mm | 0 m/s | - | - |
| 1778021097 | 14.44° C | 95% | 1006.9 hPa | 1.02 mm | 0 m/s | - | - |
| 1778020477 | 15° C | 95% | 1006.5 hPa | 1.27 mm | 0 m/s | - | - |
| 1778019877 | 15° C | 95% | 1006.8 hPa | 1.78 mm | 0 m/s | - | - |
| 1778019299 | 15° C | 94% | 1007 hPa | 2.29 mm | 0 m/s | - | - |
| 1778018677 | 15° C | 94% | 1006.6 hPa | 3.05 mm | 0 m/s | - | - |
| 1778018078 | 15° C | 94% | 1006.4 hPa | 3.05 mm | 0 m/s | - | - |
| 1778017496 | 15° C | 94% | 1006.5 hPa | 3.3 mm | 0 m/s | - | - |
| 1778016878 | 15° C | 93% | 1006.7 hPa | 4.57 mm | 0 m/s | - | - |
| 1778016278 | 15° C | 92% | 1006.7 hPa | 4.32 mm | 0 m/s | - | - |
| 1778015699 | 15° C | 91% | 1006.8 hPa | 3.56 mm | 0 m/s | - | - |
| 1778015078 | 15.56° C | 89% | 1006.6 hPa | 2.79 mm | 0 m/s | - | - |
| 1778014478 | 15.56° C | 87% | 1006.5 hPa | 2.29 mm | 0 m/s | - | - |
| 1778013900 | 16.11° C | 83% | 1006 hPa | 1.52 mm | 0 m/s | - | - |
| 1778013278 | 16.67° C | 80% | 1005.9 hPa | 0.25 mm | 0 m/s | - | - |
| 1778012678 | 17.78° C | 69% | 1005.7 hPa | 0 mm | 0 m/s | - | - |
| 1778012099 | 18.33° C | 60% | 1005.2 hPa | 0 mm | 0 m/s | - | - |
| 1778011478 | 18.33° C | 57% | 1004.6 hPa | 0 mm | 0 m/s | - | - |
| 1778010878 | 18.33° C | 58% | 1004.5 hPa | 0 mm | 0 m/s | - | - |
| 1778010297 | 18.33° C | 57% | 1004.4 hPa | 0 mm | 0 m/s | - | - |
* Rain latest hour (hover to see other rain measurements)
** Current wind speed in m/s (hover to see current wind gust speed)